Time;durP1;ratioP1;P1;durP2;ratioP2;P2;SDS_P1;SDS_P2;PMS_P1;PMS_P2;Temp;Humidity;BMP_temperature;BMP_pressure;BME280_temperature;BME280_humidity;BME280_pressure;Samples;Min_cycle;Max_cycle;Signal;HPM_P1;HPM_P2
2021/05/05 00:02:03;;;;;;;4.10;0.30;;;;;12.60;99863.00;;;;5104633;28;20556;-76
2021/05/05 00:04:30;;;;;;;3.47;0.32;;;;;12.60;99858.00;;;;5105440;28;20255;-77
2021/05/05 00:06:58;;;;;;;1.48;0.50;;;;;12.60;99858.00;;;;5086669;28;20233;-77
2021/05/05 00:09:25;;;;;;;3.40;0.55;;;;;12.60;99864.00;;;;5084438;28;20202;-77
2021/05/05 00:11:52;;;;;;;2.40;0.43;;;;;12.60;99860.00;;;;5085219;28;20218;-77
2021/05/05 00:14:21;;;;;;;3.58;0.40;;;;;12.60;99859.00;;;;5084729;28;20213;-76
2021/05/05 00:16:48;;;;;;;4.93;0.98;;;;;12.60;99860.00;;;;5079887;28;20206;-77
2021/05/05 00:19:16;;;;;;;2.67;0.73;;;;;12.60;99864.00;;;;5070880;28;20206;-77
2021/05/05 00:21:43;;;;;;;2.70;0.82;;;;;12.70;99866.00;;;;5071434;28;20203;-77
2021/05/05 00:24:12;;;;;;;2.05;0.68;;;;;12.70;99859.00;;;;5089941;28;20199;-77
2021/05/05 00:26:38;;;;;;;4.80;0.60;;;;;12.70;99862.00;;;;5091716;28;20229;-77
2021/05/05 00:29:05;;;;;;;5.03;0.98;;;;;12.70;99863.00;;;;5091421;28;20205;-77
2021/05/05 00:31:33;;;;;;;3.13;0.85;;;;;12.70;99869.00;;;;5091265;28;20202;-77
2021/05/05 00:34:00;;;;;;;2.92;0.70;;;;;12.70;99864.00;;;;5091522;28;20202;-77
2021/05/05 00:36:27;;;;;;;11.75;1.13;;;;;12.70;99865.00;;;;5091799;28;20209;-77
2021/05/05 00:38:55;;;;;;;3.58;0.65;;;;;12.70;99858.00;;;;5089490;28;20198;-76
2021/05/05 00:41:22;;;;;;;3.60;0.70;;;;;12.70;99854.00;;;;5091481;28;20202;-76
2021/05/05 00:43:48;;;;;;;2.70;0.50;;;;;12.80;99865.00;;;;5091267;28;20187;-77
2021/05/05 00:46:15;;;;;;;3.83;0.80;;;;;12.80;99865.00;;;;5090635;28;20267;-77
2021/05/05 00:48:43;;;;;;;3.15;0.60;;;;;12.80;99878.00;;;;5082518;28;20183;-77
2021/05/05 00:51:09;;;;;;;1.73;0.30;;;;;12.80;99890.00;;;;5070617;28;20265;-76
2021/05/05 00:53:39;;;;;;;0.98;0.30;;;;;12.80;99894.00;;;;5070586;28;20566;-76
2021/05/05 00:56:06;;;;;;;4.10;0.65;;;;;12.70;99886.00;;;;5070908;28;20210;-76
2021/05/05 00:58:33;;;;;;;0.93;0.30;;;;;12.70;99888.00;;;;5070730;28;20761;-76
2021/05/05 01:01:00;;;;;;;2.70;0.40;;;;;12.60;99894.00;;;;5070338;28;20214;-76
2021/05/05 01:03:26;;;;;;;1.30;0.40;;;;;12.60;99887.00;;;;5070744;28;20210;-76
2021/05/05 01:05:54;;;;;;;2.08;0.30;;;;;12.60;99882.00;;;;5070313;28;20238;-76
2021/05/05 01:08:23;;;;;;;1.73;0.40;;;;;12.50;99873.00;;;;5070765;28;20199;-77
2021/05/05 01:10:50;;;;;;;4.68;0.45;;;;;12.50;99880.00;;;;5070288;28;20202;-77
2021/05/05 01:13:18;;;;;;;1.23;0.30;;;;;12.50;99870.00;;;;5071052;28;20226;-76
2021/05/05 01:15:45;;;;;;;2.25;0.50;;;;;12.40;99872.00;;;;5070216;28;20676;-76
2021/05/05 01:18:12;;;;;;;1.13;0.15;;;;;12.40;99872.00;;;;5069747;28;20618;-77
2021/05/05 01:20:39;;;;;;;1.42;0.25;;;;;12.40;99868.00;;;;5070413;28;20194;-76
2021/05/05 01:23:07;;;;;;;1.05;0.47;;;;;12.30;99867.00;;;;5075653;28;20202;-77
2021/05/05 01:25:34;;;;;;;2.53;0.70;;;;;12.30;99865.00;;;;5075860;28;20223;-76
2021/05/05 01:28:01;;;;;;;7.20;1.02;;;;;12.20;99874.00;;;;5069324;28;20239;-76
2021/05/05 01:30:29;;;;;;;1.92;0.32;;;;;12.20;99873.00;;;;5074770;28;20202;-76
2021/05/05 01:32:55;;;;;;;3.35;0.68;;;;;12.20;99869.00;;;;5090069;28;20667;-76
2021/05/05 01:35:24;;;;;;;4.88;0.82;;;;;12.20;99871.00;;;;5090427;28;20232;-76
2021/05/05 01:37:52;;;;;;;2.05;0.40;;;;;12.10;99867.00;;;;5089923;28;20202;-76
2021/05/05 01:40:23;;;;;;;2.63;0.60;;;;;12.10;99872.00;;;;5089949;28;20210;-78
2021/05/05 01:42:49;;;;;;;0.50;0.30;;;;;12.10;99872.00;;;;5089533;28;20703;-76
2021/05/05 01:45:16;;;;;;;1.75;0.22;;;;;12.10;99865.00;;;;5089625;28;20244;-76
2021/05/05 01:47:43;;;;;;;1.45;0.40;;;;;12.00;99866.00;;;;5081730;28;20672;-76
2021/05/05 01:50:12;;;;;;;1.48;0.30;;;;;12.00;99865.00;;;;5069548;28;20207;-76
2021/05/05 01:52:39;;;;;;;3.65;0.52;;;;;12.00;99863.00;;;;5069170;28;20203;-76
2021/05/05 01:55:07;;;;;;;1.42;0.57;;;;;12.00;99863.00;;;;5069621;28;20217;-76
2021/05/05 01:57:42;;;;;;;1.55;0.50;;;;;12.00;99859.00;;;;5069327;28;20214;-76
2021/05/05 02:00:12;;;;;;;4.03;0.70;;;;;12.00;99865.00;;;;5069385;28;20587;-76
2021/05/05 02:02:40;;;;;;;2.63;0.57;;;;;12.10;99855.00;;;;5069477;28;20731;-76
2021/05/05 02:05:08;;;;;;;3.17;0.50;;;;;12.10;99857.00;;;;5069284;28;20229;-76
2021/05/05 02:07:35;;;;;;;1.52;0.60;;;;;12.00;99854.00;;;;5069212;28;20199;-76
2021/05/05 02:10:03;;;;;;;4.18;0.60;;;;;12.00;99842.00;;;;5068935;28;20191;-76
2021/05/05 02:12:31;;;;;;;4.50;0.80;;;;;12.00;99846.00;;;;5068869;28;20211;-76
2021/05/05 02:14:58;;;;;;;2.08;0.93;;;;;12.00;99840.00;;;;5068763;28;20203;-77
2021/05/05 02:17:25;;;;;;;1.95;0.35;;;;;12.00;99835.00;;;;5068416;28;20199;-76
2021/05/05 02:19:54;;;;;;;1.15;0.60;;;;;12.00;99842.00;;;;5068791;28;20663;-76
2021/05/05 02:22:21;;;;;;;3.10;0.55;;;;;11.90;99840.00;;;;5071341;28;20202;-76
2021/05/05 02:24:48;;;;;;;1.17;0.43;;;;;12.00;99836.00;;;;5088869;28;20206;-77
2021/05/05 02:27:15;;;;;;;1.75;0.70;;;;;12.00;99838.00;;;;5088669;28;20663;-76
2021/05/05 02:29:42;;;;;;;2.00;0.90;;;;;12.00;99838.00;;;;5088400;28;20205;-76
2021/05/05 02:32:13;;;;;;;3.65;1.00;;;;;11.90;99839.00;;;;5088730;28;20202;-76
2021/05/05 02:34:40;;;;;;;2.13;0.70;;;;;11.90;99839.00;;;;5088017;28;20735;-76
2021/05/05 02:37:09;;;;;;;3.38;0.70;;;;;11.90;99839.00;;;;5088808;28;20210;-76
2021/05/05 02:39:37;;;;;;;4.90;1.00;;;;;11.90;99829.00;;;;5073949;28;20302;-76
2021/05/05 02:42:04;;;;;;;7.47;0.95;;;;;11.80;99838.00;;;;5068533;28;20252;-76
2021/05/05 02:44:30;;;;;;;2.75;0.90;;;;;11.80;99842.00;;;;5068861;28;20207;-76
2021/05/05 02:46:59;;;;;;;1.70;0.85;;;;;11.80;99842.00;;;;5068616;28;20230;-76
2021/05/05 02:49:26;;;;;;;2.75;0.93;;;;;11.80;99839.00;;;;5068892;28;20202;-76
2021/05/05 02:51:53;;;;;;;1.73;0.50;;;;;11.80;99843.00;;;;5068560;28;20194;-76
2021/05/05 02:54:20;;;;;;;3.15;0.73;;;;;11.80;99851.00;;;;5068687;28;20214;-76
2021/05/05 02:56:47;;;;;;;2.60;0.90;;;;;11.70;99845.00;;;;5083895;28;20202;-75
2021/05/05 02:59:14;;;;;;;1.63;0.70;;;;;11.70;99850.00;;;;5088700;28;20206;-76
2021/05/05 03:01:40;;;;;;;3.28;1.10;;;;;11.70;99840.00;;;;5088660;28;20198;-76
2021/05/05 03:04:07;;;;;;;5.22;1.15;;;;;11.70;99847.00;;;;5088518;28;20206;-76
2021/05/05 03:06:35;;;;;;;4.30;0.93;;;;;11.60;99851.00;;;;5088376;28;20234;-76
2021/05/05 03:09:03;;;;;;;3.22;0.85;;;;;11.60;99837.00;;;;5088478;28;20198;-76
2021/05/05 03:11:30;;;;;;;2.22;0.80;;;;;11.60;99846.00;;;;5088287;28;20205;-76
2021/05/05 03:13:57;;;;;;;4.28;1.00;;;;;11.50;99841.00;;;;5087424;28;20324;-76
2021/05/05 03:16:24;;;;;;;4.47;1.10;;;;;11.50;99848.00;;;;5088728;28;20198;-76
2021/05/05 03:18:51;;;;;;;3.33;0.80;;;;;11.40;99847.00;;;;5088028;28;20210;-76
2021/05/05 03:21:18;;;;;;;6.00;1.23;;;;;11.40;99845.00;;;;5088501;28;20214;-76
2021/05/05 03:23:45;;;;;;;2.13;0.70;;;;;11.40;99851.00;;;;5088018;28;20205;-76
2021/05/05 03:26:12;;;;;;;1.38;0.65;;;;;11.40;99854.00;;;;5088283;28;20229;-76
2021/05/05 03:28:39;;;;;;;3.15;1.10;;;;;11.40;99845.00;;;;5088398;28;20206;-76
2021/05/05 03:31:06;;;;;;;3.55;1.02;;;;;11.40;99860.00;;;;5069262;28;20210;-76
2021/05/05 03:33:34;;;;;;;1.63;0.90;;;;;11.40;99854.00;;;;5068430;28;20210;-76
2021/05/05 03:36:01;;;;;;;3.92;0.88;;;;;11.30;99857.00;;;;5067608;28;20198;-76
2021/05/05 03:38:29;;;;;;;2.95;0.57;;;;;11.30;99859.00;;;;5068316;28;20201;-76
2021/05/05 03:40:56;;;;;;;5.18;1.10;;;;;11.30;99866.00;;;;5068274;28;20253;-76
2021/05/05 03:43:23;;;;;;;2.42;1.13;;;;;11.30;99873.00;;;;5067603;28;20202;-76
2021/05/05 03:45:50;;;;;;;2.28;1.02;;;;;11.30;99871.00;;;;5068959;28;20223;-76
2021/05/05 03:48:18;;;;;;;4.40;1.55;;;;;11.30;99873.00;;;;5068070;28;20271;-76
2021/05/05 03:50:45;;;;;;;3.17;0.70;;;;;11.30;99882.00;;;;5068008;28;20207;-76
2021/05/05 03:53:11;;;;;;;4.40;0.52;;;;;11.30;99875.00;;;;5070407;28;20592;-76
2021/05/05 03:55:38;;;;;;;5.72;0.68;;;;;11.40;99872.00;;;;5072370;28;20202;-76
2021/05/05 03:58:06;;;;;;;2.25;0.82;;;;;11.40;99866.00;;;;5071772;28;20633;-76
2021/05/05 04:00:32;;;;;;;1.08;0.50;;;;;11.40;99870.00;;;;5071979;28;20206;-76
2021/05/05 04:02:59;;;;;;;2.40;0.70;;;;;11.40;99863.00;;;;5072595;28;20203;-76
2021/05/05 04:05:26;;;;;;;3.10;0.60;;;;;11.50;99874.00;;;;5091892;28;20242;-76
2021/05/05 04:07:53;;;;;;;3.65;0.55;;;;;11.50;99858.00;;;;5090943;28;20202;-76
2021/05/05 04:10:19;;;;;;;3.53;0.68;;;;;11.50;99870.00;;;;5091859;28;20203;-76
2021/05/05 04:12:46;;;;;;;4.88;0.80;;;;;11.50;99875.00;;;;5091962;28;20222;-76
2021/05/05 04:15:14;;;;;;;3.45;1.05;;;;;11.40;99875.00;;;;5091822;28;20209;-76
2021/05/05 04:17:41;;;;;;;2.38;0.80;;;;;11.50;99878.00;;;;5091150;28;20203;-76
2021/05/05 04:20:10;;;;;;;2.90;0.70;;;;;11.50;99875.00;;;;5090549;28;20212;-76
2021/05/05 04:22:37;;;;;;;3.05;0.90;;;;;11.60;99879.00;;;;5089771;28;20669;-76
2021/05/05 04:25:04;;;;;;;3.50;0.57;;;;;11.60;99895.00;;;;5080213;28;20668;-76
2021/05/05 04:27:32;;;;;;;3.80;1.05;;;;;11.60;99882.00;;;;5091680;28;20202;-76
2021/05/05 04:29:58;;;;;;;1.52;0.60;;;;;11.60;99880.00;;;;5090868;28;20213;-76
2021/05/05 04:32:26;;;;;;;5.07;1.17;;;;;11.60;99891.00;;;;5091103;28;20209;-76
2021/05/05 04:34:53;;;;;;;2.38;1.00;;;;;11.60;99881.00;;;;5091817;28;20213;-76
2021/05/05 04:37:19;;;;;;;1.23;0.77;;;;;11.70;99885.00;;;;5086425;28;20222;-76
2021/05/05 04:39:46;;;;;;;1.15;0.77;;;;;11.70;99889.00;;;;5070734;28;20207;-76
2021/05/05 04:42:13;;;;;;;2.55;1.13;;;;;11.70;99899.00;;;;5070775;28;20207;-76
2021/05/05 04:44:39;;;;;;;1.33;1.00;;;;;11.70;99906.00;;;;5070726;28;20214;-76
2021/05/05 04:47:06;;;;;;;3.97;0.93;;;;;11.70;99908.00;;;;5070812;28;20234;-76
2021/05/05 04:49:34;;;;;;;2.90;0.85;;;;;11.70;99912.00;;;;5070862;28;20652;-76
2021/05/05 04:52:00;;;;;;;2.65;1.00;;;;;11.70;99901.00;;;;5069829;28;20710;-76
2021/05/05 04:54:27;;;;;;;1.58;0.88;;;;;11.70;99912.00;;;;5075777;28;20215;-76
2021/05/05 04:56:54;;;;;;;2.67;0.80;;;;;11.70;99921.00;;;;5090844;28;20194;-76
2021/05/05 04:59:21;;;;;;;4.75;1.02;;;;;11.80;99930.00;;;;5090313;28;20220;-77
2021/05/05 05:01:47;;;;;;;2.53;0.80;;;;;11.80;99922.00;;;;5090823;28;20221;-77
2021/05/05 05:04:14;;;;;;;3.78;0.88;;;;;11.80;99925.00;;;;5090486;28;20729;-76
2021/05/05 05:06:42;;;;;;;2.67;0.93;;;;;11.80;99916.00;;;;5089714;28;20234;-76
2021/05/05 05:09:08;;;;;;;1.90;0.73;;;;;11.70;99924.00;;;;5089142;28;20214;-76
2021/05/05 05:11:35;;;;;;;1.42;0.77;;;;;11.70;99929.00;;;;5089475;28;20202;-76
2021/05/05 05:14:02;;;;;;;1.83;0.82;;;;;11.80;99934.00;;;;5089337;28;20226;-76
2021/05/05 05:16:29;;;;;;;1.02;0.52;;;;;11.80;99943.00;;;;5090170;28;20205;-76
2021/05/05 05:18:55;;;;;;;1.48;0.50;;;;;11.80;99930.00;;;;5089890;28;20944;-76
2021/05/05 05:21:22;;;;;;;4.15;1.13;;;;;11.80;99936.00;;;;5089295;28;20206;-76
2021/05/05 05:23:50;;;;;;;3.05;1.00;;;;;11.80;99936.00;;;;5089240;28;20614;-76
2021/05/05 05:26:16;;;;;;;0.90;0.60;;;;;11.80;99931.00;;;;5089737;28;20240;-76
2021/05/05 05:28:43;;;;;;;3.40;0.85;;;;;11.80;99937.00;;;;5081424;28;20542;-76
2021/05/05 05:31:10;;;;;;;1.33;0.65;;;;;11.90;99934.00;;;;5069299;28;20351;-76
2021/05/05 05:33:37;;;;;;;1.85;0.82;;;;;11.90;99948.00;;;;5069647;28;20592;-76
2021/05/05 05:36:04;;;;;;;1.77;0.68;;;;;12.00;99952.00;;;;5068400;28;20564;-76
2021/05/05 05:38:31;;;;;;;2.33;0.93;;;;;12.00;99948.00;;;;5069453;28;20202;-76
2021/05/05 05:40:58;;;;;;;2.20;0.80;;;;;12.00;99956.00;;;;5068467;28;20353;-76
2021/05/05 05:43:25;;;;;;;2.97;0.70;;;;;12.10;99960.00;;;;5069194;28;20198;-76
2021/05/05 05:45:52;;;;;;;0.82;0.70;;;;;12.10;99960.00;;;;5069517;28;20634;-76
2021/05/05 05:48:19;;;;;;;3.17;0.90;;;;;12.10;99942.00;;;;5068644;28;20199;-76
2021/05/05 05:50:45;;;;;;;2.08;0.70;;;;;12.20;99950.00;;;;5068969;28;20206;-76
2021/05/05 05:53:12;;;;;;;1.55;0.50;;;;;12.20;99952.00;;;;5068647;28;20207;-76
2021/05/05 05:55:43;;;;;;;5.38;1.38;;;;;12.20;99954.00;;;;5069230;28;20207;-76
2021/05/05 05:58:10;;;;;;;1.35;0.50;;;;;12.20;99958.00;;;;5069451;28;20203;-77
2021/05/05 06:00:38;;;;;;;3.97;0.75;;;;;12.20;99963.00;;;;5069815;28;20206;-76
2021/05/05 06:03:05;;;;;;;2.22;0.80;;;;;12.30;99958.00;;;;5079212;28;20228;-76
2021/05/05 06:05:33;;;;;;;4.43;0.90;;;;;12.30;99966.00;;;;5089089;28;20218;-76
2021/05/05 06:08:00;;;;;;;3.17;0.88;;;;;12.40;99971.00;;;;5088877;28;20268;-76
2021/05/05 06:10:27;;;;;;;6.60;0.95;;;;;12.40;99972.00;;;;5089778;28;20190;-77
2021/05/05 06:12:54;;;;;;;1.60;0.60;;;;;12.50;99977.00;;;;5089725;28;20270;-76
2021/05/05 06:15:21;;;;;;;2.25;0.80;;;;;12.50;99983.00;;;;5088384;28;20236;-76
2021/05/05 06:17:48;;;;;;;3.00;0.85;;;;;12.60;99988.00;;;;5089416;28;20202;-77
2021/05/05 06:20:15;;;;;;;3.58;0.85;;;;;12.60;99983.00;;;;5088376;28;20232;-76
2021/05/05 06:22:43;;;;;;;2.63;0.70;;;;;12.60;99986.00;;;;5086077;28;20194;-75
2021/05/05 06:25:11;;;;;;;3.78;0.77;;;;;12.60;99996.00;;;;5069105;28;20207;-75
2021/05/05 06:27:38;;;;;;;3.85;0.90;;;;;12.60;99998.00;;;;5068720;28;20336;-76
2021/05/05 06:30:06;;;;;;;3.50;0.88;;;;;12.60;100010.00;;;;5068717;28;20692;-76
2021/05/05 06:32:34;;;;;;;1.90;0.88;;;;;12.60;100004.00;;;;5068815;28;20245;-76
2021/05/05 06:35:00;;;;;;;1.67;0.60;;;;;12.60;100011.00;;;;5068673;28;20260;-76
2021/05/05 06:37:27;;;;;;;2.97;0.85;;;;;12.60;99999.00;;;;5082750;28;20213;-76
2021/05/05 06:39:56;;;;;;;2.85;0.80;;;;;12.60;100012.00;;;;5088345;28;20198;-76
2021/05/05 06:42:23;;;;;;;3.45;0.80;;;;;12.60;100015.00;;;;5089203;28;20567;-77
2021/05/05 06:44:50;;;;;;;1.48;0.65;;;;;12.70;100004.00;;;;5089270;28;20714;-76
2021/05/05 06:47:17;;;;;;;3.38;0.90;;;;;12.70;100010.00;;;;5084454;28;20226;-76
2021/05/05 06:49:45;;;;;;;2.90;0.73;;;;;12.70;100015.00;;;;5068352;28;20252;-76
2021/05/05 06:52:11;;;;;;;1.88;0.65;;;;;12.70;100017.00;;;;5068056;28;20199;-76
2021/05/05 06:54:38;;;;;;;2.65;0.60;;;;;12.80;100030.00;;;;5069719;28;20211;-77
2021/05/05 06:57:07;;;;;;;3.25;0.90;;;;;12.80;100025.00;;;;5068673;28;20202;-76
2021/05/05 06:59:33;;;;;;;2.33;0.80;;;;;12.80;100021.00;;;;5068499;28;20199;-76
2021/05/05 07:02:00;;;;;;;1.60;0.60;;;;;12.80;100034.00;;;;5068267;28;20407;-76
2021/05/05 07:04:27;;;;;;;4.47;0.68;;;;;12.90;100037.00;;;;5068695;28;20656;-76
2021/05/05 07:06:55;;;;;;;2.42;0.82;;;;;13.00;100036.00;;;;5068588;28;20238;-76
2021/05/05 07:09:21;;;;;;;6.78;1.45;;;;;13.00;100047.00;;;;5068645;28;20206;-76
2021/05/05 07:11:48;;;;;;;3.28;0.50;;;;;13.10;100047.00;;;;5069298;28;20194;-77
2021/05/05 07:14:15;;;;;;;9.18;1.05;;;;;13.20;100040.00;;;;5068038;28;20191;-77
2021/05/05 07:16:42;;;;;;;4.22;0.80;;;;;13.20;100049.00;;;;5068770;28;20187;-76
2021/05/05 07:19:08;;;;;;;2.42;0.77;;;;;13.30;100054.00;;;;5068080;28;20198;-76
2021/05/05 07:21:35;;;;;;;4.00;0.73;;;;;13.40;100054.00;;;;5068233;28;20553;-76
2021/05/05 07:24:03;;;;;;;2.55;0.82;;;;;13.40;100054.00;;;;5077031;28;20190;-77
2021/05/05 07:26:30;;;;;;;2.67;1.35;;;;;13.50;100049.00;;;;5088507;28;20233;-76
2021/05/05 07:28:57;;;;;;;5.40;1.58;;;;;13.60;100052.00;;;;5074144;28;20207;-76
2021/05/05 07:31:24;;;;;;;2.40;0.70;;;;;13.60;100048.00;;;;5072441;28;20199;-76
2021/05/05 07:33:51;;;;;;;5.05;1.10;;;;;13.60;100056.00;;;;5072405;28;20260;-77
2021/05/05 07:36:21;;;;;;;2.30;0.60;;;;;13.70;100069.00;;;;5072047;28;20203;-76
2021/05/05 07:42:17;;;;;;;4.18;0.52;;;;;13.60;100068.00;;;;5071172;28;20707;-77
2021/05/05 07:47:30;;;;;;;5.88;0.85;;;;;13.70;100084.00;;;;5072956;28;20225;-76
2021/05/05 07:49:59;;;;;;;1.77;0.43;;;;;13.70;100078.00;;;;5072058;28;20624;-77
2021/05/05 07:52:26;;;;;;;7.57;0.80;;;;;13.70;100061.00;;;;5071478;28;20648;-77
2021/05/05 07:54:52;;;;;;;1.48;0.50;;;;;13.80;100085.00;;;;5072038;28;20190;-77
2021/05/05 07:57:22;;;;;;;1.83;0.60;;;;;13.80;100081.00;;;;5072001;28;20199;-76
2021/05/05 07:59:48;;;;;;;1.48;0.55;;;;;13.80;100095.00;;;;5072134;28;20222;-77
2021/05/05 08:02:16;;;;;;;2.95;0.50;;;;;13.90;100098.00;;;;5084374;28;20214;-77
2021/05/05 08:04:49;;;;;;;1.20;0.70;;;;;13.90;100095.00;;;;5091493;28;20209;-76
2021/05/05 08:07:17;;;;;;;0.77;0.28;;;;;14.00;100100.00;;;;5091528;28;20230;-77
2021/05/05 08:09:44;;;;;;;3.90;0.50;;;;;14.00;100111.00;;;;5092122;28;20240;-76
2021/05/05 08:12:11;;;;;;;4.70;0.75;;;;;14.10;100107.00;;;;5092088;28;20218;-76
2021/05/05 08:14:39;;;;;;;1.90;0.50;;;;;14.10;100105.00;;;;5092108;28;20199;-77
2021/05/05 08:17:06;;;;;;;2.58;0.38;;;;;14.20;100114.00;;;;5091110;28;20679;-76
2021/05/05 08:19:34;;;;;;;1.67;0.50;;;;;14.30;100115.00;;;;5091196;28;20214;-76
2021/05/05 08:22:01;;;;;;;4.57;0.35;;;;;14.30;100117.00;;;;5092829;28;20221;-77
2021/05/05 08:24:28;;;;;;;4.43;0.85;;;;;14.30;100115.00;;;;5075762;28;20567;-77
2021/05/05 08:26:55;;;;;;;1.33;0.45;;;;;14.40;100122.00;;;;5073108;28;20567;-77
2021/05/05 08:29:24;;;;;;;1.40;0.65;;;;;14.50;100125.00;;;;5092829;28;20209;-77
2021/05/05 08:31:51;;;;;;;2.75;0.63;;;;;14.60;100135.00;;;;5092804;28;20201;-77
2021/05/05 08:34:18;;;;;;;2.75;0.77;;;;;14.60;100140.00;;;;5091448;28;20194;-76
2021/05/05 08:36:45;;;;;;;2.83;0.98;;;;;14.60;100142.00;;;;5074695;28;20213;-77
2021/05/05 08:39:11;;;;;;;3.85;0.70;;;;;14.60;100144.00;;;;5070700;28;20199;-77
2021/05/05 08:41:39;;;;;;;1.77;0.40;;;;;14.40;100139.00;;;;5071721;28;20203;-76
2021/05/05 08:44:09;;;;;;;2.17;0.57;;;;;14.30;100153.00;;;;5071064;28;20199;-76
2021/05/05 08:46:37;;;;;;;13.27;1.15;;;;;14.30;100151.00;;;;5070804;28;20259;-76
2021/05/05 08:49:05;;;;;;;10.23;1.33;;;;;14.20;100139.00;;;;5070628;28;20244;-77
2021/05/05 08:51:32;;;;;;;4.63;0.80;;;;;14.20;100146.00;;;;5071063;28;20191;-77
2021/05/05 08:53:59;;;;;;;2.08;0.70;;;;;14.20;100150.00;;;;5089412;28;20614;-77
2021/05/05 08:56:26;;;;;;;2.33;0.82;;;;;14.20;100180.00;;;;5091080;28;20667;-77
2021/05/05 08:58:52;;;;;;;5.78;0.60;;;;;14.20;100174.00;;;;5090928;28;20623;-77
2021/05/05 09:01:19;;;;;;;3.05;0.65;;;;;14.10;100172.00;;;;5091152;28;20202;-76
2021/05/05 09:03:46;;;;;;;1.55;0.40;;;;;14.10;100193.00;;;;5091105;28;20210;-77
2021/05/05 09:06:15;;;;;;;2.95;0.98;;;;;14.00;100194.00;;;;5089877;28;20237;-77
2021/05/05 09:08:48;;;;;;;2.53;0.70;;;;;13.90;100186.00;;;;5091048;28;20190;-77
2021/05/05 09:11:15;;;;;;;3.45;0.70;;;;;14.10;100188.00;;;;5070863;28;20214;-77
2021/05/05 09:13:50;;;;;;;4.50;0.80;;;;;14.10;100210.00;;;;5071244;28;20215;-77
2021/05/05 09:16:22;;;;;;;2.10;0.63;;;;;14.20;100205.00;;;;5070012;28;20301;-77
2021/05/05 09:19:00;;;;;;;2.35;0.55;;;;;14.10;100207.00;;;;5070621;28;20202;-77
2021/05/05 09:21:31;;;;;;;1.00;0.20;;;;;14.00;100203.00;;;;5069857;28;20198;-77
2021/05/05 09:24:20;;;;;;;1.05;0.50;;;;;13.80;100206.00;;;;5079790;28;20206;-77
2021/05/05 09:26:48;;;;;;;3.08;0.57;;;;;13.90;100221.00;;;;5073089;28;20664;-77
2021/05/05 09:29:15;;;;;;;2.08;0.50;;;;;13.90;100214.00;;;;5069054;28;20200;-77
2021/05/05 09:31:43;;;;;;;0.82;0.30;;;;;13.90;100213.00;;;;5069606;28;20210;-77
2021/05/05 09:34:11;;;;;;;1.42;0.40;;;;;13.90;100226.00;;;;5070052;28;20199;-77
2021/05/05 09:36:40;;;;;;;3.35;0.40;;;;;13.90;100216.00;;;;5069945;28;20198;-78
2021/05/05 09:39:10;;;;;;;1.98;0.55;;;;;14.00;100219.00;;;;5070484;28;20203;-77
2021/05/05 09:41:42;;;;;;;2.65;0.60;;;;;14.10;100230.00;;;;5070539;28;20198;-77
2021/05/05 09:44:09;;;;;;;1.92;0.85;;;;;14.30;100220.00;;;;5070167;28;20210;-77
2021/05/05 09:46:42;;;;;;;2.45;0.50;;;;;14.50;100238.00;;;;5069971;28;20222;-78
2021/05/05 09:49:20;;;;;;;2.92;0.75;;;;;14.50;100248.00;;;;5069075;28;20716;-77
2021/05/05 09:51:50;;;;;;;1.58;0.50;;;;;14.60;100277.00;;;;5069916;28;20198;-77
2021/05/05 09:54:29;;;;;;;1.73;0.40;;;;;14.40;100262.00;;;;5069958;28;20256;-78
2021/05/05 09:57:13;;;;;;;1.27;0.30;;;;;14.30;100266.00;;;;5069533;28;20224;-77
2021/05/05 09:59:55;;;;;;;1.27;0.40;;;;;14.20;100257.00;;;;5069499;28;20595;-77
2021/05/05 10:02:22;;;;;;;1.08;0.30;;;;;14.20;100267.00;;;;5070107;28;20205;-77
2021/05/05 10:05:04;;;;;;;0.40;0.25;;;;;14.10;100260.00;;;;5068819;28;20187;-76
2021/05/05 10:07:53;;;;;;;2.55;0.45;;;;;14.00;100276.00;;;;5068886;28;20262;-77
2021/05/05 10:10:21;;;;;;;2.45;0.70;;;;;14.20;100273.00;;;;5068256;28;20191;-77
2021/05/05 10:12:49;;;;;;;3.63;0.80;;;;;14.20;100281.00;;;;5068923;28;20221;-77
2021/05/05 10:15:16;;;;;;;2.30;0.60;;;;;14.30;100269.00;;;;5068170;28;20205;-76
2021/05/05 10:17:47;;;;;;;1.70;0.55;;;;;14.30;100276.00;;;;5068606;28;20230;-77
2021/05/05 10:20:17;;;;;;;3.28;1.27;;;;;14.40;100304.00;;;;5068545;28;20283;-77
2021/05/05 10:22:44;;;;;;;2.95;0.70;;;;;14.50;100289.00;;;;5068247;28;20249;-77
2021/05/05 10:25:15;;;;;;;3.45;1.02;;;;;14.70;100299.00;;;;5080465;28;20244;-77
2021/05/05 10:27:42;;;;;;;2.97;0.93;;;;;14.80;100293.00;;;;5068763;28;20229;-77
2021/05/05 10:30:11;;;;;;;2.03;0.65;;;;;14.90;100316.00;;;;5067654;28;20207;-77
2021/05/05 10:32:41;;;;;;;2.90;0.60;;;;;15.00;100308.00;;;;5069173;28;20240;-76
2021/05/05 10:35:10;;;;;;;7.22;1.35;;;;;15.10;100308.00;;;;5068920;28;20207;-77
2021/05/05 10:37:42;;;;;;;4.68;0.90;;;;;15.10;100320.00;;;;5068376;28;20568;-77
2021/05/05 10:40:19;;;;;;;2.85;1.13;;;;;15.10;100313.00;;;;5067968;28;20202;-77
2021/05/05 10:42:55;;;;;;;4.03;1.00;;;;;15.10;100331.00;;;;5068378;28;20248;-76
2021/05/05 10:45:37;;;;;;;6.45;1.00;;;;;15.20;100322.00;;;;5068335;28;20202;-77
2021/05/05 10:48:10;;;;;;;3.38;0.73;;;;;15.30;100331.00;;;;5066079;28;20221;-76
2021/05/05 10:50:55;;;;;;;4.93;1.10;;;;;15.30;100341.00;;;;5067931;28;20233;-76
2021/05/05 10:53:22;;;;;;;5.78;1.30;;;;;15.30;100351.00;;;;5067978;28;20206;-76
2021/05/05 10:55:53;;;;;;;7.55;1.40;;;;;15.30;100347.00;;;;5068271;28;20210;-76
2021/05/05 10:58:25;;;;;;;8.77;1.85;;;;;15.30;100339.00;;;;5067700;28;20202;-77
2021/05/05 11:00:58;;;;;;;5.00;1.13;;;;;15.30;100365.00;;;;5067815;28;20673;-76
2021/05/05 11:03:58;;;;;;;2.75;1.05;;;;;15.30;100364.00;;;;5068373;28;20191;-77
2021/05/05 11:06:57;;;;;;;2.78;0.93;;;;;15.40;100357.00;;;;5068061;28;20292;-78
2021/05/05 11:09:44;;;;;;;4.63;0.98;;;;;15.50;100380.00;;;;5068811;28;20203;-77
2021/05/05 11:12:40;;;;;;;6.50;0.88;;;;;15.60;100382.00;;;;5068364;28;20190;-77
2021/05/05 11:15:08;;;;;;;6.45;1.52;;;;;15.70;100358.00;;;;5068058;28;20191;-78
2021/05/05 11:17:35;;;;;;;5.03;1.40;;;;;15.80;100387.00;;;;5068646;28;20198;-78
2021/05/05 11:20:03;;;;;;;6.28;1.88;;;;;15.90;100372.00;;;;5068256;28;20631;-77
2021/05/05 11:22:43;;;;;;;3.70;0.73;;;;;15.90;100384.00;;;;5068446;28;20294;-78
2021/05/05 11:25:25;;;;;;;7.38;1.20;;;;;16.10;100412.00;;;;5083925;28;20205;-78
2021/05/05 11:27:54;;;;;;;4.80;1.40;;;;;16.00;100431.00;;;;5068304;28;20317;-76
2021/05/05 11:30:42;;;;;;;1.75;0.60;;;;;15.60;100440.00;;;;5068374;28;20199;-76
2021/05/05 11:33:10;;;;;;;2.17;0.57;;;;;15.40;100436.00;;;;5068076;28;20203;-76
2021/05/05 11:35:38;;;;;;;1.60;0.63;;;;;15.20;100456.00;;;;5068818;28;20225;-76
2021/05/05 11:38:24;;;;;;;2.63;0.88;;;;;15.00;100461.00;;;;5067152;28;20394;-77
2021/05/05 11:40:53;;;;;;;3.80;0.85;;;;;14.90;100455.00;;;;5066841;28;20214;-76
2021/05/05 11:43:21;;;;;;;5.15;0.93;;;;;14.80;100452.00;;;;5068689;28;20199;-76
2021/05/05 11:45:54;;;;;;;5.10;0.80;;;;;14.80;100461.00;;;;5067853;28;20199;-77
2021/05/05 11:48:29;;;;;;;2.80;0.82;;;;;14.90;100438.00;;;;5068273;28;20487;-76
2021/05/05 11:50:55;;;;;;;7.25;1.55;;;;;15.10;100473.00;;;;5067700;28;20214;-76
2021/05/05 11:53:36;;;;;;;2.28;0.70;;;;;15.10;100478.00;;;;5068177;28;20209;-76
2021/05/05 11:56:14;;;;;;;5.20;1.25;;;;;15.30;100470.00;;;;5067854;28;20290;-77
2021/05/05 11:58:43;;;;;;;3.78;1.27;;;;;15.30;100476.00;;;;5068496;28;20242;-78
2021/05/05 12:01:09;;;;;;;4.43;1.25;;;;;15.40;100471.00;;;;5087590;28;20256;-77
2021/05/05 12:03:36;;;;;;;3.17;1.27;;;;;15.50;100470.00;;;;5088328;28;20606;-78
2021/05/05 12:06:03;;;;;;;4.43;1.20;;;;;15.70;100482.00;;;;5087757;28;20197;-77
2021/05/05 12:08:30;;;;;;;3.45;1.23;;;;;15.80;100490.00;;;;5088583;28;20205;-77
2021/05/05 12:10:58;;;;;;;2.92;0.88;;;;;15.70;100490.00;;;;5087907;28;20209;-77
2021/05/05 12:13:26;;;;;;;3.05;0.85;;;;;15.70;100498.00;;;;5089755;28;20222;-76
2021/05/05 12:15:58;;;;;;;4.20;1.17;;;;;15.70;100513.00;;;;5090709;28;20251;-76
2021/05/05 12:18:29;;;;;;;5.90;1.02;;;;;15.70;100517.00;;;;5091524;28;20209;-77
2021/05/05 12:21:03;;;;;;;4.75;0.90;;;;;15.70;100508.00;;;;5090889;28;20206;-77
2021/05/05 12:23:38;;;;;;;3.67;0.93;;;;;15.70;100520.00;;;;5089348;28;20190;-76
2021/05/05 12:26:19;;;;;;;3.15;0.70;;;;;15.70;100521.00;;;;5090462;28;20667;-77
2021/05/05 12:28:47;;;;;;;2.47;0.63;;;;;15.90;100525.00;;;;5091290;28;20206;-76